createdAt,value
2023-02-15T00:01:19.326Z,100.00
2023-02-15T00:03:45.664Z,100.00
2023-02-15T00:06:11.985Z,100.00
2023-02-15T00:08:38.293Z,100.00
2023-02-15T00:11:04.622Z,100.00
2023-02-15T00:13:30.961Z,100.00
2023-02-15T00:15:57.262Z,100.00
2023-02-15T00:18:23.593Z,100.00
2023-02-15T00:20:49.895Z,100.00
2023-02-15T00:23:16.218Z,100.00
2023-02-15T00:25:42.526Z,100.00
2023-02-15T00:28:08.913Z,100.00
2023-02-15T00:30:35.284Z,100.00
2023-02-15T00:33:01.612Z,100.00
2023-02-15T00:35:27.943Z,100.00
2023-02-15T00:37:54.258Z,100.00
2023-02-15T00:40:20.602Z,100.00
2023-02-15T00:42:46.925Z,100.00
2023-02-15T00:45:13.222Z,100.00
2023-02-15T00:47:39.528Z,100.00
2023-02-15T00:50:06.520Z,100.00
2023-02-15T00:52:32.873Z,100.00
2023-02-15T00:54:59.256Z,100.00
2023-02-15T00:57:25.581Z,100.00
2023-02-15T00:59:52.252Z,100.00
2023-02-15T01:02:18.630Z,100.00
2023-02-15T01:04:45.023Z,100.00
2023-02-15T01:07:11.369Z,100.00
2023-02-15T01:09:37.733Z,100.00
2023-02-15T01:12:04.112Z,100.00
2023-02-15T01:14:30.419Z,100.00
2023-02-15T01:16:56.774Z,100.00
2023-02-15T01:19:23.125Z,100.00
2023-02-15T01:21:49.448Z,100.00
2023-02-15T01:24:15.829Z,100.00
2023-02-15T01:26:42.136Z,100.00
2023-02-15T01:29:08.571Z,100.00
2023-02-15T01:31:35.063Z,100.00
2023-02-15T01:34:01.535Z,100.00
2023-02-15T01:36:27.869Z,100.00
2023-02-15T01:38:54.247Z,100.00
2023-02-15T01:41:28.240Z,100.00
2023-02-15T01:43:54.630Z,100.00
2023-02-15T01:46:21.080Z,100.00
2023-02-15T01:48:47.455Z,100.00
2023-02-15T01:51:13.819Z,100.00
2023-02-15T01:53:40.549Z,100.00
2023-02-15T01:56:06.866Z,100.00
2023-02-15T01:58:33.196Z,100.00
2023-02-15T02:01:00.964Z,100.00
2023-02-15T02:03:27.738Z,100.00
2023-02-15T02:05:54.078Z,100.00
2023-02-15T02:08:20.406Z,100.00
2023-02-15T02:10:46.762Z,100.00
2023-02-15T02:13:13.103Z,100.00
2023-02-15T02:15:39.468Z,100.00
2023-02-15T02:18:05.858Z,100.00
2023-02-15T02:20:32.233Z,100.00
2023-02-15T02:22:58.566Z,100.00
2023-02-15T02:25:24.923Z,100.00
2023-02-15T02:27:51.822Z,100.00
2023-02-15T02:30:18.213Z,100.00
2023-02-15T02:32:44.610Z,100.00
2023-02-15T02:35:10.928Z,100.00
2023-02-15T02:37:37.248Z,100.00
2023-02-15T02:40:04.897Z,100.00
2023-02-15T02:42:31.262Z,100.00
2023-02-15T02:44:57.569Z,100.00
2023-02-15T02:47:25.266Z,100.00
2023-02-15T02:49:51.583Z,100.00
2023-02-15T02:52:17.894Z,100.00
2023-02-15T02:54:44.322Z,100.00
2023-02-15T02:57:10.659Z,100.00
2023-02-15T02:59:36.985Z,100.00
2023-02-15T03:02:03.348Z,100.00
2023-02-15T03:04:29.718Z,100.00
2023-02-15T03:06:56.032Z,100.00
2023-02-15T03:09:22.367Z,100.00
2023-02-15T03:11:49.358Z,100.00
2023-02-15T03:14:15.697Z,100.00
2023-02-15T03:16:42.018Z,100.00
2023-02-15T03:19:08.380Z,100.00
2023-02-15T03:21:34.740Z,100.00
2023-02-15T03:24:01.044Z,100.00
2023-02-15T03:26:27.358Z,100.00
2023-02-15T03:28:53.730Z,100.00
2023-02-15T03:31:20.133Z,100.00
2023-02-15T03:33:46.466Z,100.00
2023-02-15T03:36:12.781Z,100.00
2023-02-15T03:38:39.099Z,100.00
2023-02-15T03:41:11.530Z,100.00
2023-02-15T03:43:37.834Z,100.00
2023-02-15T03:46:05.526Z,100.00
2023-02-15T03:48:31.906Z,100.00
2023-02-15T03:51:17.149Z,100.00
2023-02-15T03:53:43.464Z,100.00
2023-02-15T03:56:09.770Z,100.00
2023-02-15T03:58:54.944Z,100.00
2023-02-15T04:01:40.313Z,100.00
2023-02-15T04:04:06.622Z,100.00
2023-02-15T04:06:32.930Z,100.00
2023-02-15T04:09:18.025Z,100.00
2023-02-15T04:11:44.356Z,100.00
2023-02-15T04:14:29.545Z,100.00
2023-02-15T04:16:55.927Z,100.00
2023-02-15T04:19:41.148Z,100.00
2023-02-15T04:22:26.141Z,100.00
2023-02-15T04:25:10.571Z,100.00
2023-02-15T04:27:36.890Z,100.00
2023-02-15T04:30:03.228Z,100.00
2023-02-15T04:32:29.553Z,100.00
2023-02-15T04:34:55.875Z,100.00
2023-02-15T04:37:22.202Z,100.00
2023-02-15T04:39:48.514Z,100.00
2023-02-15T04:42:14.819Z,100.00
2023-02-15T04:44:41.133Z,100.00
2023-02-15T04:47:07.457Z,100.00
2023-02-15T04:49:33.807Z,100.00
2023-02-15T04:52:00.111Z,100.00
2023-02-15T04:54:26.417Z,100.00
2023-02-15T04:56:52.738Z,100.00
2023-02-15T04:59:19.039Z,100.00
2023-02-15T05:01:45.339Z,100.00
2023-02-15T05:04:11.950Z,100.00
2023-02-15T05:06:38.296Z,100.00
2023-02-15T05:09:04.639Z,100.00
2023-02-15T05:11:30.954Z,100.00
2023-02-15T05:13:57.261Z,100.00
2023-02-15T05:16:23.621Z,100.00
2023-02-15T05:18:49.982Z,100.00
2023-02-15T05:21:17.592Z,100.00
2023-02-15T05:23:43.926Z,100.00
2023-02-15T05:26:29.085Z,100.00
2023-02-15T05:28:55.406Z,100.00
2023-02-15T05:31:21.905Z,100.00
2023-02-15T05:33:48.308Z,100.00
2023-02-15T05:36:14.684Z,100.00
2023-02-15T05:38:41.041Z,100.00
2023-02-15T05:41:07.346Z,100.00
2023-02-15T05:43:33.711Z,100.00
2023-02-15T05:46:00.298Z,100.00
2023-02-15T05:48:26.814Z,100.00
2023-02-15T05:50:53.129Z,100.00
2023-02-15T05:53:19.442Z,100.00
2023-02-15T05:55:45.757Z,100.00
2023-02-15T05:58:12.074Z,100.00
2023-02-15T06:00:38.418Z,100.00
2023-02-15T06:03:04.796Z,100.00
2023-02-15T06:05:31.139Z,100.00
2023-02-15T06:07:57.449Z,100.00
2023-02-15T06:10:23.769Z,100.00
2023-02-15T06:12:50.092Z,100.00
2023-02-15T06:15:16.469Z,100.00
2023-02-15T06:17:43.509Z,100.00
2023-02-15T06:20:10.168Z,100.00
2023-02-15T06:22:36.471Z,100.00
2023-02-15T06:25:02.833Z,100.00
2023-02-15T06:27:29.179Z,100.00
2023-02-15T06:29:55.538Z,100.00
2023-02-15T06:32:21.955Z,100.00
2023-02-15T06:34:48.898Z,100.00
2023-02-15T06:37:15.459Z,100.00
2023-02-15T06:39:41.892Z,100.00
2023-02-15T06:42:08.221Z,100.00
2023-02-15T06:44:34.536Z,100.00
2023-02-15T06:47:00.858Z,100.00
2023-02-15T06:49:27.188Z,100.00
2023-02-15T06:51:53.539Z,100.00
2023-02-15T06:54:19.861Z,100.00
2023-02-15T06:56:46.185Z,100.00
2023-02-15T06:59:12.506Z,100.00
2023-02-15T07:01:39.171Z,100.00
2023-02-15T07:04:05.539Z,100.00
2023-02-15T07:06:31.868Z,100.00
2023-02-15T07:08:58.169Z,100.00
2023-02-15T07:11:43.431Z,100.00
2023-02-15T07:14:09.737Z,100.00
2023-02-15T07:16:36.098Z,100.00
2023-02-15T07:19:02.899Z,100.00
2023-02-15T07:21:29.231Z,100.00
2023-02-15T07:23:55.559Z,100.00
2023-02-15T07:26:21.864Z,100.00
2023-02-15T07:28:48.177Z,100.00
2023-02-15T07:31:14.520Z,100.00
2023-02-15T07:33:40.844Z,100.00
2023-02-15T07:36:07.234Z,100.00
2023-02-15T07:38:33.555Z,100.00
2023-02-15T07:41:00.251Z,99.96
2023-02-15T07:43:26.568Z,98.93
2023-02-15T07:45:52.895Z,98.79
2023-02-15T07:48:19.225Z,97.42
2023-02-15T07:50:45.551Z,97.10
2023-02-15T07:53:11.926Z,96.66
2023-02-15T07:55:38.330Z,95.18
2023-02-15T07:58:04.649Z,94.29
2023-02-15T08:00:31.056Z,94.00
2023-02-15T08:03:16.099Z,94.12
2023-02-15T08:05:42.593Z,93.43
2023-02-15T08:08:08.971Z,92.55
2023-02-15T08:10:54.231Z,91.36
2023-02-15T08:13:20.587Z,91.42
2023-02-15T08:15:46.934Z,90.36
2023-02-15T08:18:13.906Z,89.74
2023-02-15T08:20:40.263Z,89.56
2023-02-15T08:23:06.581Z,89.37
2023-02-15T08:25:32.902Z,87.74
2023-02-15T08:27:59.204Z,86.95
2023-02-15T08:30:25.572Z,85.74
2023-02-15T08:32:51.948Z,86.85
2023-02-15T08:35:18.282Z,85.80
2023-02-15T08:37:44.591Z,86.26
2023-02-15T08:40:11.054Z,86.56
2023-02-15T08:42:37.397Z,85.49
2023-02-15T08:45:03.736Z,85.27
2023-02-15T08:47:30.062Z,85.20
2023-02-15T08:49:56.998Z,83.78
2023-02-15T08:52:23.337Z,83.20
2023-02-15T08:54:49.654Z,83.89
2023-02-15T08:57:16.000Z,83.36
2023-02-15T08:59:42.335Z,82.94
2023-02-15T09:02:08.696Z,82.52
2023-02-15T09:04:35.112Z,83.52
2023-02-15T09:07:01.485Z,81.78
2023-02-15T09:09:27.840Z,82.27
2023-02-15T09:11:58.723Z,82.27
2023-02-15T09:14:27.234Z,81.99
2023-02-15T09:16:53.609Z,82.16
2023-02-15T09:19:20.198Z,80.33
2023-02-15T09:21:46.547Z,79.65
2023-02-15T09:24:12.856Z,80.58
2023-02-15T09:26:40.381Z,80.65
2023-02-15T09:29:06.745Z,79.21
2023-02-15T09:31:33.181Z,78.45
2023-02-15T09:33:59.646Z,79.31
2023-02-15T09:36:25.962Z,78.29
2023-02-15T09:38:52.267Z,77.48
2023-02-15T09:41:18.588Z,78.09
2023-02-15T09:43:45.080Z,77.35
2023-02-15T09:46:11.527Z,76.63
2023-02-15T09:48:37.877Z,76.95
2023-02-15T09:51:04.472Z,76.67
2023-02-15T09:53:30.926Z,76.49
2023-02-15T09:55:57.272Z,77.02
2023-02-15T09:58:23.603Z,74.90
2023-02-15T10:00:50.544Z,74.89
2023-02-15T10:03:16.847Z,73.80
2023-02-15T10:05:43.167Z,73.59
2023-02-15T10:08:09.486Z,75.13
2023-02-15T10:10:35.799Z,74.13
2023-02-15T10:13:02.207Z,74.25
2023-02-15T10:15:28.566Z,74.06
2023-02-15T10:17:54.893Z,74.08
2023-02-15T10:20:21.213Z,76.10
2023-02-15T10:22:47.722Z,74.84
2023-02-15T10:25:14.323Z,75.64
2023-02-15T10:27:40.649Z,76.75
2023-02-15T10:30:07.019Z,75.23
2023-02-15T10:32:33.414Z,74.73
2023-02-15T10:34:59.737Z,73.03
2023-02-15T10:37:26.038Z,73.50
2023-02-15T10:39:52.337Z,74.15
2023-02-15T10:42:18.664Z,73.20
2023-02-15T10:44:44.973Z,74.26
2023-02-15T10:47:12.777Z,73.63
2023-02-15T10:49:39.309Z,73.15
2023-02-15T10:52:05.669Z,72.07
2023-02-15T10:54:31.994Z,73.67
2023-02-15T10:56:58.327Z,72.01
2023-02-15T10:59:24.632Z,71.86
2023-02-15T11:01:51.029Z,73.25
2023-02-15T11:04:17.542Z,72.65
2023-02-15T11:06:43.914Z,72.01
2023-02-15T11:09:10.745Z,72.06
2023-02-15T11:11:37.126Z,72.61
2023-02-15T11:14:03.460Z,71.78
2023-02-15T11:16:29.798Z,72.36
2023-02-15T11:18:56.116Z,72.33
2023-02-15T11:21:22.457Z,71.74
2023-02-15T11:23:49.054Z,70.97
2023-02-15T11:26:15.454Z,71.68
2023-02-15T11:28:41.778Z,71.59
2023-02-15T11:31:08.214Z,71.64
2023-02-15T11:33:34.565Z,70.35
2023-02-15T11:36:00.865Z,70.87
2023-02-15T11:38:27.364Z,70.62
2023-02-15T11:40:53.771Z,70.97
2023-02-15T11:43:20.126Z,70.37
2023-02-15T11:45:46.452Z,71.14
2023-02-15T11:48:12.777Z,70.49
2023-02-15T11:50:39.164Z,70.57
2023-02-15T11:53:05.477Z,69.73
2023-02-15T11:55:31.900Z,69.01
2023-02-15T11:57:58.251Z,69.66
2023-02-15T12:00:24.606Z,69.64
2023-02-15T12:02:50.941Z,68.81
2023-02-15T12:05:17.266Z,69.04
2023-02-15T12:07:44.589Z,69.54
2023-02-15T12:10:13.011Z,69.87
2023-02-15T12:12:39.398Z,70.17
2023-02-15T12:15:06.087Z,70.37
2023-02-15T12:17:32.405Z,70.12
2023-02-15T12:19:58.756Z,69.38
2023-02-15T12:22:25.121Z,69.06
2023-02-15T12:24:52.288Z,69.78
2023-02-15T12:27:18.648Z,69.11
2023-02-15T12:29:44.997Z,68.94
2023-02-15T12:32:11.367Z,68.71
2023-02-15T12:34:40.579Z,69.16
2023-02-15T12:37:06.955Z,69.10
2023-02-15T12:39:33.335Z,68.62
2023-02-15T12:41:59.694Z,68.46
2023-02-15T12:44:27.067Z,68.08
2023-02-15T12:46:53.424Z,68.73
2023-02-15T12:49:21.169Z,68.63
2023-02-15T12:51:47.669Z,68.51
2023-02-15T12:54:13.970Z,68.21
2023-02-15T12:56:40.314Z,68.79
2023-02-15T12:59:06.960Z,68.27
2023-02-15T13:01:33.305Z,68.00
2023-02-15T13:03:59.690Z,67.56
2023-02-15T13:06:26.070Z,68.71
2023-02-15T13:08:52.379Z,68.91
2023-02-15T13:11:18.677Z,68.37
2023-02-15T13:13:45.006Z,68.68
2023-02-15T13:16:11.384Z,68.61
2023-02-15T13:18:37.774Z,68.75
2023-02-15T13:21:04.481Z,68.60
2023-02-15T13:23:31.013Z,68.65
2023-02-15T13:25:57.330Z,68.25
2023-02-15T13:28:23.689Z,68.79
2023-02-15T13:30:50.124Z,68.52
2023-02-15T13:33:16.525Z,67.99
2023-02-15T13:35:42.854Z,68.30
2023-02-15T13:38:09.194Z,68.19
2023-02-15T13:40:35.585Z,68.01
2023-02-15T13:43:02.110Z,68.06
2023-02-15T13:45:28.565Z,67.64
2023-02-15T13:47:54.909Z,67.49
2023-02-15T13:50:21.417Z,67.68
2023-02-15T13:52:47.737Z,67.13
2023-02-15T13:55:14.034Z,67.29
2023-02-15T13:57:40.445Z,67.54
2023-02-15T14:00:06.809Z,67.16
2023-02-15T14:02:33.211Z,66.68
2023-02-15T14:04:59.552Z,66.83
2023-02-15T14:07:25.864Z,66.87
2023-02-15T14:09:52.392Z,67.44
2023-02-15T14:12:18.742Z,67.24
2023-02-15T14:14:45.114Z,67.74
2023-02-15T14:17:11.855Z,68.53
2023-02-15T14:19:38.300Z,69.01
2023-02-15T14:22:06.597Z,69.08
2023-02-15T14:24:33.449Z,69.00
2023-02-15T14:26:59.807Z,69.25
2023-02-15T14:29:26.136Z,69.74
2023-02-15T14:31:52.575Z,69.57
2023-02-15T14:34:19.071Z,69.67
2023-02-15T14:36:45.645Z,69.44
2023-02-15T14:39:32.585Z,69.36
2023-02-15T14:41:59.745Z,69.77
2023-02-15T14:44:26.097Z,69.43
2023-02-15T14:46:52.483Z,69.85
2023-02-15T14:49:19.243Z,70.15
2023-02-15T14:51:48.697Z,70.38
2023-02-15T14:54:14.998Z,70.49
2023-02-15T14:56:41.315Z,70.24
2023-02-15T14:59:07.734Z,70.42
2023-02-15T15:01:34.255Z,70.71
2023-02-15T15:04:00.800Z,71.27
2023-02-15T15:06:27.546Z,71.60
2023-02-15T15:08:56.696Z,71.58
2023-02-15T15:11:42.184Z,72.13
2023-02-15T15:14:09.663Z,72.33
2023-02-15T15:16:36.064Z,72.27
2023-02-15T15:19:02.415Z,73.77
2023-02-15T15:21:28.734Z,74.56
2023-02-15T15:23:55.604Z,74.82
2023-02-15T15:26:21.914Z,75.25
2023-02-15T15:28:48.307Z,75.80
2023-02-15T15:31:14.709Z,75.56
2023-02-15T15:33:41.074Z,76.17
2023-02-15T15:36:07.462Z,76.12
2023-02-15T15:38:33.810Z,76.11
2023-02-15T15:41:00.147Z,77.09
2023-02-15T15:43:29.078Z,77.58
2023-02-15T15:45:55.440Z,77.69
2023-02-15T15:48:21.870Z,78.06
2023-02-15T15:50:49.663Z,78.31
2023-02-15T15:53:16.653Z,78.85
2023-02-15T15:55:43.019Z,79.05
2023-02-15T15:58:09.422Z,79.36
2023-02-15T16:00:35.750Z,79.69
2023-02-15T16:03:02.079Z,79.82
2023-02-15T16:05:28.518Z,80.28
2023-02-15T16:07:54.899Z,80.41
2023-02-15T16:10:21.206Z,80.36
2023-02-15T16:12:47.563Z,80.99
2023-02-15T16:15:13.896Z,81.19
2023-02-15T16:17:40.244Z,81.49
2023-02-15T16:20:06.573Z,81.67
2023-02-15T16:22:32.872Z,81.71
2023-02-15T16:24:59.185Z,82.47
2023-02-15T16:27:25.494Z,83.12
2023-02-15T16:29:51.826Z,83.67
2023-02-15T16:32:19.372Z,83.48
2023-02-15T16:34:45.689Z,83.64
2023-02-15T16:37:12.082Z,84.49
2023-02-15T16:39:38.414Z,84.69
2023-02-15T16:42:05.369Z,85.22
2023-02-15T16:44:34.018Z,85.43
2023-02-15T16:47:00.398Z,85.87
2023-02-15T16:49:26.772Z,85.94
2023-02-15T16:51:53.079Z,85.91
2023-02-15T16:54:19.456Z,86.29
2023-02-15T16:56:47.324Z,87.11
2023-02-15T16:59:13.634Z,86.54
2023-02-15T17:01:39.981Z,86.97
2023-02-15T17:04:06.367Z,87.09
2023-02-15T17:06:32.739Z,88.53
2023-02-15T17:08:59.080Z,87.95
2023-02-15T17:11:25.418Z,87.96
2023-02-15T17:13:51.724Z,89.00
2023-02-15T17:16:18.066Z,88.68
2023-02-15T17:18:44.433Z,89.48
2023-02-15T17:21:10.798Z,89.23
2023-02-15T17:23:37.118Z,89.39
2023-02-15T17:26:03.712Z,91.31
2023-02-15T17:28:30.274Z,91.18
2023-02-15T17:30:56.771Z,90.52
2023-02-15T17:33:23.517Z,90.53
2023-02-15T17:35:49.838Z,90.67
2023-02-15T17:38:16.152Z,90.22
2023-02-15T17:40:42.495Z,90.64
2023-02-15T17:43:08.805Z,90.63
2023-02-15T17:45:35.259Z,90.73
2023-02-15T17:48:01.585Z,91.22
2023-02-15T17:50:28.104Z,91.66
2023-02-15T17:52:54.413Z,91.73
2023-02-15T17:55:36.254Z,91.55
2023-02-15T17:58:02.597Z,91.46
2023-02-15T18:00:47.775Z,92.29
2023-02-15T18:03:33.082Z,91.79
2023-02-15T18:06:17.978Z,92.55
2023-02-15T18:09:02.751Z,92.45
2023-02-15T18:11:38.200Z,92.53
2023-02-15T18:14:04.568Z,92.53
2023-02-15T18:16:30.939Z,92.78
2023-02-15T18:18:57.264Z,93.10
2023-02-15T18:21:23.602Z,93.30
2023-02-15T18:23:49.921Z,93.45
2023-02-15T18:26:16.217Z,93.79
2023-02-15T18:28:42.552Z,93.25
2023-02-15T18:31:08.934Z,93.49
2023-02-15T18:33:35.297Z,93.28
2023-02-15T18:36:02.188Z,93.14
2023-02-15T18:38:28.532Z,93.47
2023-02-15T18:40:54.832Z,93.74
2023-02-15T18:43:21.199Z,94.24
2023-02-15T18:45:47.570Z,94.21
2023-02-15T18:48:15.448Z,95.20
2023-02-15T18:50:41.771Z,94.70
2023-02-15T18:53:08.142Z,94.74
2023-02-15T18:55:35.605Z,94.28
2023-02-15T18:58:01.933Z,94.05
2023-02-15T19:00:33.168Z,95.01
2023-02-15T19:02:59.493Z,95.05
2023-02-15T19:05:27.653Z,94.69
2023-02-15T19:07:54.030Z,95.54
2023-02-15T19:10:20.370Z,94.88
2023-02-15T19:12:46.732Z,94.94
2023-02-15T19:15:13.049Z,94.98
2023-02-15T19:17:39.476Z,94.70
2023-02-15T19:20:05.834Z,94.68
2023-02-15T19:22:33.719Z,96.11
2023-02-15T19:25:00.033Z,95.58
2023-02-15T19:27:26.367Z,95.90
2023-02-15T19:29:52.852Z,96.00
2023-02-15T19:32:20.757Z,96.11
2023-02-15T19:34:47.136Z,95.77
2023-02-15T19:37:13.454Z,96.00
2023-02-15T19:39:39.801Z,95.83
2023-02-15T19:42:06.138Z,96.41
2023-02-15T19:44:32.459Z,95.94
2023-02-15T19:46:58.880Z,96.25
2023-02-15T19:49:25.203Z,96.01
2023-02-15T19:51:51.520Z,95.67
2023-02-15T19:54:17.838Z,96.69
2023-02-15T19:56:44.139Z,96.46
2023-02-15T19:59:10.446Z,96.27
2023-02-15T20:01:36.807Z,96.20
2023-02-15T20:04:03.158Z,96.76
2023-02-15T20:06:29.470Z,96.76
2023-02-15T20:08:55.911Z,96.33
2023-02-15T20:11:22.243Z,96.27
2023-02-15T20:13:48.572Z,96.62
2023-02-15T20:16:15.010Z,96.85
2023-02-15T20:18:44.682Z,96.71
2023-02-15T20:21:11.037Z,96.42
2023-02-15T20:23:37.442Z,96.94
2023-02-15T20:26:03.784Z,96.40
2023-02-15T20:28:30.104Z,96.59
2023-02-15T20:30:59.845Z,96.63
2023-02-15T20:33:26.226Z,96.49
2023-02-15T20:35:52.570Z,96.61
2023-02-15T20:38:19.070Z,96.71
2023-02-15T20:41:05.555Z,96.47
2023-02-15T20:43:31.944Z,96.19
2023-02-15T20:45:58.283Z,96.29
2023-02-15T20:48:24.609Z,96.00
2023-02-15T20:50:50.986Z,95.80
2023-02-15T20:53:17.337Z,96.05
2023-02-15T20:55:44.094Z,95.87
2023-02-15T20:58:10.432Z,95.84
2023-02-15T21:00:36.745Z,95.94
2023-02-15T21:03:03.087Z,95.56
2023-02-15T21:05:30.521Z,95.45
2023-02-15T21:07:56.839Z,96.19
2023-02-15T21:10:23.208Z,95.55
2023-02-15T21:12:49.608Z,95.12
2023-02-15T21:15:15.957Z,95.51
2023-02-15T21:17:42.258Z,95.29
2023-02-15T21:20:08.572Z,95.18
2023-02-15T21:22:34.921Z,95.09
2023-02-15T21:25:02.680Z,95.44
2023-02-15T21:27:29.145Z,95.07
2023-02-15T21:29:55.454Z,95.32
2023-02-15T21:32:21.971Z,95.05
2023-02-15T21:34:48.350Z,94.92
2023-02-15T21:37:14.659Z,95.23
2023-02-15T21:39:40.958Z,95.09
2023-02-15T21:42:26.097Z,95.22
2023-02-15T21:45:11.098Z,94.66
2023-02-15T21:47:52.489Z,95.48
2023-02-15T21:50:37.732Z,95.21
2023-02-15T21:53:04.036Z,95.07
2023-02-15T21:55:30.329Z,95.39
2023-02-15T21:57:56.662Z,95.05
2023-02-15T22:00:22.994Z,95.09
2023-02-15T22:02:49.313Z,95.01
2023-02-15T22:05:15.691Z,95.29
2023-02-15T22:07:42.021Z,95.27
2023-02-15T22:10:08.341Z,95.04
2023-02-15T22:12:34.667Z,94.72
2023-02-15T22:15:01.749Z,94.42
2023-02-15T22:17:31.150Z,94.51
2023-02-15T22:19:57.688Z,94.87
2023-02-15T22:22:24.056Z,95.23
2023-02-15T22:24:50.386Z,95.32
2023-02-15T22:27:16.699Z,95.50
2023-02-15T22:29:43.205Z,95.56
2023-02-15T22:32:09.656Z,95.36
2023-02-15T22:34:36.070Z,95.50
2023-02-15T22:37:03.286Z,95.69
2023-02-15T22:39:29.604Z,96.18
2023-02-15T22:41:55.911Z,95.95
2023-02-15T22:44:22.237Z,95.55
2023-02-15T22:46:48.568Z,96.00
2023-02-15T22:49:14.911Z,95.58
2023-02-15T22:51:41.269Z,95.95
2023-02-15T22:54:07.614Z,95.82
2023-02-15T22:56:33.954Z,95.39
2023-02-15T22:59:00.349Z,95.66
2023-02-15T23:01:26.670Z,95.53
2023-02-15T23:03:53.076Z,95.54
2023-02-15T23:06:19.419Z,95.58
2023-02-15T23:08:45.734Z,95.50
2023-02-15T23:11:12.121Z,95.68
2023-02-15T23:13:38.455Z,95.38
2023-02-15T23:16:04.786Z,95.75
2023-02-15T23:18:31.433Z,95.93
2023-02-15T23:20:57.788Z,95.89
2023-02-15T23:23:24.145Z,95.82
2023-02-15T23:25:50.544Z,95.89
2023-02-15T23:28:16.833Z,96.14
2023-02-15T23:30:43.160Z,96.21
2023-02-15T23:33:09.459Z,95.85
2023-02-15T23:35:35.778Z,96.90
2023-02-15T23:38:02.122Z,96.38
2023-02-15T23:40:47.251Z,96.56
2023-02-15T23:43:13.575Z,97.15
2023-02-15T23:45:39.931Z,96.89
2023-02-15T23:48:25.231Z,96.68
2023-02-15T23:50:51.545Z,96.34
2023-02-15T23:53:17.859Z,96.58
2023-02-15T23:55:44.175Z,96.77
2023-02-15T23:58:10.496Z,96.56
